createdAt,value
2023-12-12T00:01:09.548Z,100.00
2023-12-12T00:03:36.615Z,100.00
2023-12-12T00:06:03.730Z,100.00
2023-12-12T00:08:30.702Z,100.00
2023-12-12T00:10:57.617Z,100.00
2023-12-12T00:13:24.594Z,100.00
2023-12-12T00:15:51.588Z,100.00
2023-12-12T00:18:18.602Z,100.00
2023-12-12T00:20:46.177Z,100.00
2023-12-12T00:23:13.103Z,100.00
2023-12-12T00:25:40.058Z,100.00
2023-12-12T00:28:07.113Z,100.00
2023-12-12T00:30:34.436Z,100.00
2023-12-12T00:33:01.454Z,100.00
2023-12-12T00:35:28.501Z,100.00
2023-12-12T00:37:55.416Z,100.00
2023-12-12T00:40:22.415Z,100.00
2023-12-12T00:42:49.528Z,100.00
2023-12-12T00:45:17.076Z,100.00
2023-12-12T00:47:44.141Z,100.00
2023-12-12T00:50:11.396Z,100.00
2023-12-12T00:52:38.460Z,100.00
2023-12-12T00:55:05.758Z,100.00
2023-12-12T00:57:33.002Z,100.00
2023-12-12T01:00:00.355Z,100.00
2023-12-12T01:02:27.370Z,100.00
2023-12-12T01:04:54.686Z,100.00
2023-12-12T01:07:21.835Z,100.00
2023-12-12T01:09:48.963Z,100.00
2023-12-12T01:12:15.898Z,100.00
2023-12-12T01:14:42.854Z,100.00
2023-12-12T01:17:09.893Z,100.00
2023-12-12T01:19:36.849Z,100.00
2023-12-12T01:22:03.887Z,99.01
2023-12-12T01:24:31.435Z,98.25
2023-12-12T01:26:58.356Z,99.38
2023-12-12T01:29:25.342Z,100.00
2023-12-12T01:31:52.399Z,99.69
2023-12-12T01:34:19.518Z,98.23
2023-12-12T01:36:47.080Z,97.14
2023-12-12T01:39:14.039Z,96.39
2023-12-12T01:41:40.951Z,97.83
2023-12-12T01:44:07.954Z,97.18
2023-12-12T01:46:36.693Z,99.11
2023-12-12T01:49:03.954Z,99.41
2023-12-12T01:51:31.187Z,97.89
2023-12-12T01:53:59.064Z,98.43
2023-12-12T01:56:26.408Z,98.96
2023-12-12T01:58:54.516Z,98.36
2023-12-12T02:01:22.302Z,96.90
2023-12-12T02:03:50.851Z,96.13
2023-12-12T02:06:23.255Z,98.00
2023-12-12T02:08:51.078Z,98.39
2023-12-12T02:11:18.229Z,97.84
2023-12-12T02:13:45.320Z,96.42
2023-12-12T02:16:13.534Z,96.67
2023-12-12T02:18:40.734Z,95.58
2023-12-12T02:21:07.912Z,94.88
2023-12-12T02:23:34.848Z,94.35
2023-12-12T02:26:03.164Z,93.00
2023-12-12T02:28:30.605Z,93.01
2023-12-12T02:30:59.612Z,94.30
2023-12-12T02:33:26.711Z,95.48
2023-12-12T02:35:53.690Z,96.25
2023-12-12T02:38:20.659Z,96.61
2023-12-12T02:40:47.559Z,97.20
2023-12-12T02:43:14.595Z,96.29
2023-12-12T02:45:41.620Z,95.71
2023-12-12T02:48:08.664Z,96.26
2023-12-12T02:50:35.679Z,97.24
2023-12-12T02:53:02.891Z,97.93
2023-12-12T02:55:29.935Z,98.12
2023-12-12T02:57:57.046Z,98.51
2023-12-12T03:00:24.215Z,98.51
2023-12-12T03:02:51.199Z,99.49
2023-12-12T03:05:18.239Z,100.00
2023-12-12T03:07:45.224Z,100.00
2023-12-12T03:10:12.289Z,100.00
2023-12-12T03:12:39.348Z,100.00
2023-12-12T03:15:06.510Z,100.00
2023-12-12T03:17:33.757Z,100.00
2023-12-12T03:20:01.123Z,100.00
2023-12-12T03:22:28.277Z,100.00
2023-12-12T03:24:55.427Z,100.00
2023-12-12T03:27:22.330Z,100.00
2023-12-12T03:29:49.305Z,100.00
2023-12-12T03:32:16.242Z,100.00
2023-12-12T03:34:43.296Z,100.00
2023-12-12T03:37:10.389Z,100.00
2023-12-12T03:39:38.724Z,100.00
2023-12-12T03:42:05.801Z,100.00
2023-12-12T03:44:32.691Z,100.00
2023-12-12T03:46:59.641Z,100.00
2023-12-12T03:49:26.725Z,100.00
2023-12-12T03:51:53.669Z,100.00
2023-12-12T03:54:20.610Z,100.00
2023-12-12T03:56:47.546Z,100.00
2023-12-12T03:59:14.435Z,100.00
2023-12-12T04:01:41.569Z,100.00
2023-12-12T04:04:08.592Z,100.00
2023-12-12T04:06:35.589Z,100.00
2023-12-12T04:09:02.501Z,100.00
2023-12-12T04:11:29.448Z,100.00
2023-12-12T04:13:56.758Z,100.00
2023-12-12T04:16:23.665Z,100.00
2023-12-12T04:18:50.634Z,100.00
2023-12-12T04:21:17.602Z,100.00
2023-12-12T04:23:44.681Z,100.00
2023-12-12T04:26:12.253Z,100.00
2023-12-12T04:28:39.263Z,100.00
2023-12-12T04:31:06.332Z,100.00
2023-12-12T04:33:33.315Z,100.00
2023-12-12T04:36:00.673Z,100.00
2023-12-12T04:38:27.624Z,100.00
2023-12-12T04:40:54.736Z,100.00
2023-12-12T04:43:21.692Z,100.00
2023-12-12T04:45:48.652Z,100.00
2023-12-12T04:48:16.540Z,100.00
2023-12-12T04:50:43.613Z,100.00
2023-12-12T04:53:10.534Z,100.00
2023-12-12T04:55:37.582Z,100.00
2023-12-12T04:58:04.842Z,100.00
2023-12-12T05:00:31.870Z,100.00
2023-12-12T05:02:58.957Z,100.00
2023-12-12T05:05:25.938Z,100.00
2023-12-12T05:07:53.238Z,100.00
2023-12-12T05:10:20.359Z,100.00
2023-12-12T05:12:47.418Z,100.00
2023-12-12T05:15:14.400Z,100.00
2023-12-12T05:17:41.626Z,100.00
2023-12-12T05:20:11.099Z,100.00
2023-12-12T05:22:38.268Z,100.00
2023-12-12T05:25:06.496Z,100.00
2023-12-12T05:27:33.794Z,100.00
2023-12-12T05:30:00.904Z,100.00
2023-12-12T05:32:27.993Z,100.00
2023-12-12T05:34:55.109Z,100.00
2023-12-12T05:37:22.225Z,100.00
2023-12-12T05:39:49.373Z,100.00
2023-12-12T05:42:16.379Z,100.00
2023-12-12T05:44:43.269Z,100.00
2023-12-12T05:47:10.795Z,100.00
2023-12-12T05:49:38.120Z,100.00
2023-12-12T05:52:05.736Z,100.00
2023-12-12T05:54:32.765Z,100.00
2023-12-12T05:57:00.671Z,100.00
2023-12-12T05:59:27.651Z,100.00
2023-12-12T06:01:54.725Z,100.00
2023-12-12T06:04:21.924Z,100.00
2023-12-12T06:06:49.013Z,98.30
2023-12-12T06:09:18.417Z,98.06
2023-12-12T06:11:45.465Z,98.26
2023-12-12T06:14:13.539Z,97.81
2023-12-12T06:16:40.670Z,98.01
2023-12-12T06:19:07.907Z,98.04
2023-12-12T06:21:35.105Z,97.84
2023-12-12T06:24:03.675Z,99.36
2023-12-12T06:26:31.428Z,99.92
2023-12-12T06:28:58.523Z,99.57
2023-12-12T06:31:25.490Z,97.69
2023-12-12T06:33:53.312Z,97.11
2023-12-12T06:36:20.680Z,97.65
2023-12-12T06:38:47.671Z,95.02
2023-12-12T06:41:14.708Z,95.52
2023-12-12T06:43:41.932Z,94.30
2023-12-12T06:46:09.512Z,93.88
2023-12-12T06:48:38.476Z,94.38
2023-12-12T06:51:06.101Z,92.66
2023-12-12T06:53:33.393Z,93.92
2023-12-12T06:56:00.591Z,94.01
2023-12-12T06:58:27.584Z,94.48
2023-12-12T07:00:54.692Z,94.54
2023-12-12T07:03:23.257Z,95.63
2023-12-12T07:05:54.201Z,96.57
2023-12-12T07:08:21.338Z,95.83
2023-12-12T07:10:48.990Z,96.44
2023-12-12T07:13:16.094Z,94.67
2023-12-12T07:15:43.085Z,93.58
2023-12-12T07:18:12.368Z,96.72
2023-12-12T07:20:39.726Z,98.13
2023-12-12T07:23:06.793Z,98.23
2023-12-12T07:25:34.017Z,96.50
2023-12-12T07:28:01.243Z,97.91
2023-12-12T07:30:30.915Z,94.62
2023-12-12T07:32:58.086Z,95.56
2023-12-12T07:35:25.617Z,96.75
2023-12-12T07:37:52.578Z,97.25
2023-12-12T07:40:19.721Z,95.22
2023-12-12T07:42:50.132Z,97.30
2023-12-12T07:45:17.134Z,95.35
2023-12-12T07:47:44.795Z,97.49
2023-12-12T07:50:12.127Z,100.00
2023-12-12T07:52:39.601Z,95.41
2023-12-12T07:55:07.454Z,91.25
2023-12-12T07:57:34.865Z,89.67
2023-12-12T08:00:02.114Z,89.13
2023-12-12T08:02:29.038Z,87.90
2023-12-12T08:04:56.207Z,87.48
2023-12-12T08:07:24.322Z,88.75
2023-12-12T08:09:51.514Z,88.14
2023-12-12T08:12:18.615Z,88.47
2023-12-12T08:14:47.530Z,87.96
2023-12-12T08:17:16.174Z,89.12
2023-12-12T08:19:43.535Z,89.39
2023-12-12T08:22:10.677Z,89.60
2023-12-12T08:24:38.019Z,87.71
2023-12-12T08:27:05.033Z,86.65
2023-12-12T08:29:32.663Z,86.02
2023-12-12T08:31:59.868Z,89.19
2023-12-12T08:34:26.927Z,88.61
2023-12-12T08:36:53.960Z,87.44
2023-12-12T08:39:20.932Z,87.25
2023-12-12T08:41:47.927Z,86.22
2023-12-12T08:44:14.881Z,85.55
2023-12-12T08:46:45.327Z,83.05
2023-12-12T08:49:13.145Z,79.72
2023-12-12T08:51:40.755Z,78.31
2023-12-12T08:54:07.830Z,79.89
2023-12-12T08:56:34.843Z,85.33
2023-12-12T08:59:01.798Z,82.46
2023-12-12T09:01:28.886Z,82.85
2023-12-12T09:03:56.144Z,82.19
2023-12-12T09:06:23.522Z,82.51
2023-12-12T09:08:50.503Z,85.04
2023-12-12T09:11:17.427Z,83.84
2023-12-12T09:13:45.080Z,83.94
2023-12-12T09:16:12.562Z,80.70
2023-12-12T09:18:39.737Z,82.57
2023-12-12T09:21:08.211Z,83.48
2023-12-12T09:23:35.949Z,84.95
2023-12-12T09:26:03.114Z,86.28
2023-12-12T09:28:30.106Z,87.36
2023-12-12T09:30:57.284Z,87.76
2023-12-12T09:33:24.363Z,87.03
2023-12-12T09:35:51.504Z,86.84
2023-12-12T09:38:18.490Z,86.59
2023-12-12T09:40:45.473Z,88.09
2023-12-12T09:43:13.567Z,88.96
2023-12-12T09:45:45.217Z,88.54
2023-12-12T09:48:12.381Z,87.82
2023-12-12T10:20:52.791Z,100.00
2023-12-12T10:23:19.776Z,100.00
2023-12-12T10:25:51.529Z,100.00
2023-12-12T10:28:20.350Z,100.00
2023-12-12T10:30:52.592Z,100.00
2023-12-12T10:33:19.693Z,100.00
2023-12-12T10:35:46.809Z,100.00
2023-12-12T10:38:13.740Z,99.75
2023-12-12T10:40:40.744Z,99.14
2023-12-12T10:43:09.391Z,97.72
2023-12-12T10:45:38.425Z,98.00
2023-12-12T10:48:07.182Z,97.93
2023-12-12T10:50:35.728Z,97.77
2023-12-12T10:53:04.429Z,97.13
2023-12-12T10:55:32.909Z,93.88
2023-12-12T10:58:00.158Z,91.47
2023-12-12T11:00:27.941Z,88.62
2023-12-12T11:02:55.898Z,86.25
2023-12-12T11:05:25.471Z,84.98
2023-12-12T11:07:53.243Z,83.62
2023-12-12T11:10:21.437Z,82.50
2023-12-12T11:12:53.465Z,81.43
2023-12-12T11:15:21.595Z,80.75
2023-12-12T11:17:49.097Z,78.74
2023-12-12T11:20:17.205Z,78.85
2023-12-12T11:22:46.487Z,78.86
2023-12-12T11:25:21.709Z,80.21
2023-12-12T11:27:50.367Z,77.72
2023-12-12T11:30:19.274Z,74.87
2023-12-12T11:32:46.779Z,73.77
2023-12-12T11:35:27.401Z,73.95
2023-12-12T11:37:55.515Z,72.91
2023-12-12T11:40:24.024Z,72.29
2023-12-12T11:42:53.323Z,73.62
2023-12-12T11:45:34.014Z,72.89
2023-12-12T11:48:02.280Z,72.77
2023-12-12T11:50:29.336Z,71.22
2023-12-12T11:52:57.980Z,71.91
2023-12-12T11:55:36.655Z,70.33
2023-12-12T11:58:04.879Z,72.06
2023-12-12T12:00:32.723Z,70.27
2023-12-12T12:03:01.607Z,67.85
2023-12-12T12:05:29.103Z,68.76
2023-12-12T12:07:59.235Z,66.71
2023-12-12T12:10:26.827Z,66.62
2023-12-12T12:12:53.876Z,66.11
2023-12-12T12:15:20.978Z,64.46
2023-12-12T12:17:48.123Z,65.63
2023-12-12T12:20:15.366Z,65.20
2023-12-12T12:22:43.487Z,65.30
2023-12-12T12:25:10.836Z,64.42
2023-12-12T12:27:51.500Z,64.94
2023-12-12T12:30:19.343Z,64.62
2023-12-12T12:33:02.336Z,66.80
2023-12-12T12:35:29.619Z,68.52
2023-12-12T12:37:58.650Z,67.94
2023-12-12T12:40:33.289Z,67.91
2023-12-12T12:43:02.244Z,69.58
2023-12-12T12:45:29.299Z,66.94
2023-12-12T12:47:59.042Z,67.20
2023-12-12T12:50:26.314Z,69.33
2023-12-12T12:52:53.289Z,68.57
2023-12-12T12:55:20.620Z,69.28
2023-12-12T12:57:47.665Z,71.57
2023-12-12T13:00:15.008Z,75.07
2023-12-12T13:02:41.970Z,75.10
2023-12-12T13:05:09.427Z,72.06
2023-12-12T13:07:36.520Z,73.22
2023-12-12T13:10:03.793Z,72.26
2023-12-12T13:12:31.040Z,72.12
2023-12-12T13:14:58.145Z,71.24
2023-12-12T13:17:25.110Z,71.77
2023-12-12T13:19:52.247Z,72.53
2023-12-12T13:22:19.223Z,72.38
2023-12-12T13:24:46.420Z,74.67
2023-12-12T13:27:13.763Z,75.69
2023-12-12T13:29:40.586Z,76.39
2023-12-12T13:32:07.719Z,77.46
2023-12-12T13:34:35.033Z,77.19
2023-12-12T13:37:01.994Z,77.45
2023-12-12T13:39:28.861Z,79.23
2023-12-12T13:41:55.719Z,80.08
2023-12-12T13:44:22.763Z,80.36
2023-12-12T13:46:50.117Z,83.14
2023-12-12T13:49:17.074Z,82.82
2023-12-12T13:51:47.603Z,84.96
2023-12-12T13:54:15.308Z,88.46
2023-12-12T13:56:42.352Z,91.44
2023-12-12T13:59:09.397Z,93.65
2023-12-12T14:01:36.631Z,96.27
2023-12-12T14:04:04.085Z,96.68
2023-12-12T14:06:31.193Z,95.49
2023-12-12T14:08:58.084Z,94.59
2023-12-12T14:11:26.489Z,96.05
2023-12-12T14:13:53.737Z,97.50
2023-12-12T14:16:28.140Z,99.50
2023-12-12T14:18:57.238Z,100.00
2023-12-12T14:21:24.312Z,100.00
2023-12-12T14:23:51.195Z,100.00
2023-12-12T14:26:18.988Z,100.00
2023-12-12T14:28:50.117Z,100.00
2023-12-12T14:31:18.172Z,100.00
2023-12-12T14:33:45.626Z,100.00
2023-12-12T14:36:12.601Z,100.00
2023-12-12T14:38:39.479Z,100.00
2023-12-12T14:41:06.583Z,100.00
2023-12-12T14:43:33.770Z,100.00
2023-12-12T14:46:01.053Z,100.00
2023-12-12T14:48:29.919Z,100.00
2023-12-12T14:50:56.801Z,99.92
2023-12-12T14:53:23.691Z,100.00
2023-12-12T14:55:50.712Z,99.04
2023-12-12T14:58:17.900Z,96.70
2023-12-12T15:00:44.856Z,98.25
2023-12-12T15:03:11.826Z,100.00
2023-12-12T15:05:38.764Z,100.00
2023-12-12T15:08:05.703Z,100.00
2023-12-12T15:10:32.982Z,100.00
2023-12-12T15:12:59.880Z,100.00
2023-12-12T15:15:26.733Z,100.00
2023-12-12T15:17:54.228Z,100.00
2023-12-12T15:20:21.228Z,100.00
2023-12-12T15:22:48.403Z,100.00
2023-12-12T15:25:21.757Z,100.00
2023-12-12T15:28:22.900Z,100.00
2023-12-12T15:30:42.225Z,100.00
2023-12-12T15:33:09.173Z,100.00
2023-12-12T15:35:36.675Z,100.00
2023-12-12T15:38:03.578Z,100.00
2023-12-12T15:40:30.532Z,100.00
2023-12-12T15:42:57.358Z,100.00
2023-12-12T15:45:24.202Z,100.00
2023-12-12T15:47:51.068Z,100.00
2023-12-12T15:50:18.197Z,100.00
2023-12-12T15:52:45.247Z,100.00
2023-12-12T15:55:12.253Z,100.00
2023-12-12T15:57:39.061Z,100.00
2023-12-12T16:00:13.931Z,100.00
2023-12-12T16:02:42.224Z,100.00
2023-12-12T16:05:12.109Z,100.00
2023-12-12T16:07:39.486Z,100.00
2023-12-12T16:10:08.368Z,100.00
2023-12-12T16:12:38.855Z,100.00
2023-12-12T16:15:06.592Z,100.00
2023-12-12T16:17:36.734Z,100.00
2023-12-12T16:20:07.315Z,100.00
2023-12-12T16:22:35.392Z,100.00
2023-12-12T16:25:03.946Z,100.00
2023-12-12T16:27:30.966Z,100.00
2023-12-12T16:29:58.255Z,100.00
2023-12-12T16:32:25.178Z,100.00
2023-12-12T16:34:53.135Z,100.00
2023-12-12T16:37:20.285Z,100.00
2023-12-12T16:39:47.187Z,100.00
2023-12-12T16:42:16.075Z,100.00
2023-12-12T16:44:43.692Z,100.00
2023-12-12T16:47:10.902Z,100.00
2023-12-12T16:49:38.168Z,100.00
2023-12-12T16:52:05.336Z,100.00
2023-12-12T16:54:32.404Z,100.00
2023-12-12T16:57:00.187Z,100.00
2023-12-12T16:59:30.146Z,100.00
2023-12-12T17:01:58.194Z,100.00
2023-12-12T17:04:28.875Z,100.00
2023-12-12T17:06:56.277Z,100.00
2023-12-12T17:09:23.295Z,100.00
2023-12-12T17:11:50.477Z,100.00
2023-12-12T17:14:17.560Z,100.00
2023-12-12T17:16:45.364Z,100.00
2023-12-12T17:19:13.300Z,100.00
2023-12-12T17:21:40.346Z,100.00
2023-12-12T17:24:07.604Z,100.00
2023-12-12T17:26:34.593Z,100.00
2023-12-12T17:29:01.515Z,100.00
2023-12-12T17:31:28.754Z,100.00
2023-12-12T17:33:55.870Z,100.00
2023-12-12T17:36:25.403Z,100.00
2023-12-12T17:38:52.274Z,100.00
2023-12-12T17:41:19.101Z,100.00
2023-12-12T17:43:46.143Z,100.00
2023-12-12T17:46:13.722Z,100.00
2023-12-12T17:48:41.106Z,100.00
2023-12-12T17:51:08.144Z,100.00
2023-12-12T17:53:35.480Z,100.00
2023-12-12T17:56:02.819Z,100.00
2023-12-12T17:58:29.846Z,100.00
2023-12-12T18:00:57.004Z,100.00
2023-12-12T18:03:24.059Z,100.00
2023-12-12T18:05:52.795Z,100.00
2023-12-12T18:08:19.874Z,100.00
2023-12-12T18:10:46.905Z,100.00
2023-12-12T18:13:14.053Z,100.00
2023-12-12T18:15:41.048Z,100.00
2023-12-12T18:18:11.396Z,100.00
2023-12-12T18:20:38.880Z,100.00
2023-12-12T18:23:42.931Z,100.00
2023-12-12T18:26:32.406Z,100.00
2023-12-12T18:29:01.662Z,100.00
2023-12-12T18:31:31.086Z,100.00
2023-12-12T18:33:59.096Z,100.00
2023-12-12T18:36:26.304Z,100.00
2023-12-12T18:38:53.629Z,100.00
2023-12-12T18:41:24.262Z,100.00
2023-12-12T18:43:51.402Z,100.00
2023-12-12T18:46:18.775Z,100.00
2023-12-12T18:48:45.971Z,100.00
2023-12-12T18:51:13.144Z,100.00
2023-12-12T18:53:40.496Z,100.00
2023-12-12T18:56:09.399Z,100.00
2023-12-12T18:58:37.042Z,100.00
2023-12-12T19:01:05.991Z,100.00
2023-12-12T19:03:33.101Z,100.00
2023-12-12T19:06:00.351Z,100.00
2023-12-12T19:08:28.885Z,100.00
2023-12-12T19:10:56.024Z,100.00
2023-12-12T19:13:24.862Z,100.00
2023-12-12T19:15:51.863Z,100.00
2023-12-12T19:18:19.206Z,100.00
2023-12-12T19:20:47.236Z,100.00
2023-12-12T19:23:14.210Z,100.00
2023-12-12T19:25:41.196Z,100.00
2023-12-12T19:28:08.183Z,100.00
2023-12-12T19:30:38.806Z,100.00
2023-12-12T19:33:09.393Z,100.00
2023-12-12T19:35:39.052Z,100.00
2023-12-12T19:38:07.507Z,100.00
2023-12-12T19:40:54.653Z,100.00
2023-12-12T19:43:30.049Z,100.00
2023-12-12T19:45:57.020Z,100.00
2023-12-12T19:48:24.241Z,100.00
2023-12-12T19:50:52.167Z,100.00
2023-12-12T19:53:19.098Z,100.00
2023-12-12T19:55:46.191Z,100.00
2023-12-12T19:58:13.229Z,100.00
2023-12-12T20:00:40.601Z,100.00
2023-12-12T20:03:07.605Z,100.00
2023-12-12T20:05:34.780Z,100.00
2023-12-12T20:08:02.030Z,100.00
2023-12-12T20:10:34.156Z,100.00
2023-12-12T20:13:03.109Z,100.00
2023-12-12T20:15:32.451Z,100.00
2023-12-12T20:17:59.435Z,100.00
2023-12-12T20:20:26.616Z,100.00
2023-12-12T20:22:56.642Z,100.00
2023-12-12T20:25:25.592Z,100.00
2023-12-12T20:27:52.563Z,100.00
2023-12-12T20:30:19.498Z,100.00
2023-12-12T20:32:46.924Z,100.00
2023-12-12T20:35:14.423Z,100.00
2023-12-12T20:37:41.412Z,100.00
2023-12-12T20:40:10.038Z,100.00
2023-12-12T20:42:38.350Z,100.00
2023-12-12T20:45:07.656Z,100.00
2023-12-12T20:47:35.767Z,100.00
2023-12-12T20:50:06.282Z,100.00
2023-12-12T20:52:33.327Z,100.00
2023-12-12T20:55:02.041Z,100.00
2023-12-12T20:57:29.031Z,100.00
2023-12-12T20:59:56.130Z,100.00
2023-12-12T21:02:23.079Z,100.00
2023-12-12T21:04:52.885Z,100.00
2023-12-12T21:07:21.819Z,100.00
2023-12-12T21:09:48.787Z,100.00
2023-12-12T21:12:16.178Z,100.00
2023-12-12T21:14:43.089Z,100.00
2023-12-12T21:17:09.978Z,100.00
2023-12-12T21:19:37.132Z,100.00
2023-12-12T21:22:04.530Z,100.00
2023-12-12T21:24:31.395Z,100.00
2023-12-12T21:27:00.539Z,100.00
2023-12-12T21:29:27.441Z,100.00
2023-12-12T21:31:54.384Z,100.00
2023-12-12T21:34:21.440Z,100.00
2023-12-12T21:36:48.463Z,100.00
2023-12-12T21:39:15.348Z,100.00
2023-12-12T21:41:42.271Z,100.00
2023-12-12T21:44:09.112Z,100.00
2023-12-12T21:46:36.055Z,100.00
2023-12-12T21:49:03.081Z,100.00
2023-12-12T21:51:30.020Z,100.00
2023-12-12T21:53:56.892Z,100.00
2023-12-12T21:56:23.891Z,100.00
2023-12-12T21:58:50.817Z,100.00
2023-12-12T22:01:18.121Z,100.00
2023-12-12T22:03:45.139Z,100.00
2023-12-12T22:06:12.198Z,100.00
2023-12-12T22:08:39.457Z,100.00
2023-12-12T22:11:22.416Z,100.00
2023-12-12T22:13:50.029Z,100.00
2023-12-12T22:16:20.499Z,100.00
2023-12-12T22:18:47.511Z,100.00
2023-12-12T22:21:14.431Z,100.00
2023-12-12T22:23:41.324Z,100.00
2023-12-12T22:26:08.228Z,100.00
2023-12-12T22:28:35.123Z,100.00
2023-12-12T22:31:02.010Z,100.00
2023-12-12T22:33:28.874Z,100.00
2023-12-12T22:35:55.800Z,100.00
2023-12-12T22:38:23.827Z,100.00
2023-12-12T22:40:50.987Z,100.00
2023-12-12T22:43:17.948Z,100.00
2023-12-12T22:45:45.045Z,100.00
2023-12-12T22:48:12.019Z,100.00
2023-12-12T22:50:39.604Z,100.00
2023-12-12T22:53:07.348Z,100.00
2023-12-12T22:55:34.259Z,100.00
2023-12-12T22:58:01.164Z,100.00
2023-12-12T23:00:34.361Z,100.00
2023-12-12T23:03:01.382Z,100.00
2023-12-12T23:05:28.604Z,100.00
2023-12-12T23:07:55.738Z,100.00
2023-12-12T23:10:22.638Z,100.00
2023-12-12T23:12:49.604Z,100.00
2023-12-12T23:15:16.480Z,100.00
2023-12-12T23:17:43.414Z,100.00
2023-12-12T23:20:10.621Z,100.00
2023-12-12T23:22:37.518Z,100.00
2023-12-12T23:25:06.104Z,100.00
2023-12-12T23:27:33.183Z,100.00
2023-12-12T23:30:00.871Z,100.00
2023-12-12T23:32:27.679Z,100.00
2023-12-12T23:34:54.565Z,100.00
2023-12-12T23:37:24.144Z,100.00
2023-12-12T23:39:51.516Z,100.00
2023-12-12T23:42:18.758Z,100.00
2023-12-12T23:44:45.680Z,100.00
2023-12-12T23:47:12.701Z,100.00
2023-12-12T23:49:41.336Z,100.00
2023-12-12T23:52:11.254Z,100.00
2023-12-12T23:54:38.204Z,100.00
2023-12-12T23:57:05.241Z,100.00
2023-12-12T23:59:32.663Z,100.00
